Aérodrome :
LOGIN :

S'inscrire | Disclaimer

   EN    FR    IT 

 










Légende :    VFR   VFR Marginal   IFR   IFR Intensif   IFR Très Intensif
Visi : 
Plafond : 
>= 8 km
>= 3000ft
5 à 8 km
1000 à 3000 ft
1500m à 5 km
500 à 1000 ft
800 à 1500m
200 à 500 ft
< 800m
< 200 ft
Symboles :   Orages  Brouillard  Fortes neiges  Fortes précipitations  Vent > 20 kt
SIGMETs :   Divers  Orages  Givrage  Turbulence  Onde Orograph.  Cendres Volcan.






- Altitude de l'aérodrome : 405 ft
- Code IATA : SUJ


LRSM - Satu Mare

DERNIER METAR :
  • 032030Z AUTO 14001KT 9999 -SHSN NCD 02/M02 Q1016

METARs EXPIRÉS :
  • 032000Z AUTO 14002KT 9999 -SHSN NCD 04/M02 Q1015
  • 031930Z AUTO 14004KT 9999 -SHSN NCD 05/M02 Q1015
  • 031900Z AUTO 11005KT 9999 -SN NCD 05/M02 Q1015
  • 031830Z AUTO 15003KT 9999 -SN NCD 06/M02 Q1015
  • 031800Z AUTO 16004KT 7000 NCD 08/M01 Q1014

TAF TAF LRSM
Valide du 03 à 15h jusqu'au 04 à 00h UTC


031400Z 0315/0324 25006KT CAVOK



MET'MAP, la Météo Aéronautique d'un coup d'oeil ! - Copyright ORBIFLY Décembre 2007 - Disclaimer

ORBIFLY MET'MAP TEAM :

Programmation & Développement : Alexandra Zaïnal
Sur une idée originale de : Baudouin d'Aumeries
Assistance à la programmation : Marc-Olivier Méhu
Soutien technique & logistique : Manuel Goepfert

Contact : metmap@orbifly.com




SOURCES & CREDITS :

   NOAA